createdAt,value
2018-09-23T00:01:38.269Z,26.70
2018-09-23T00:04:05.961Z,29.30
2018-09-23T00:06:33.541Z,33.40
2018-09-23T00:09:01.149Z,25.30
2018-09-23T00:11:28.807Z,25.60
2018-09-23T00:13:56.432Z,37.07
2018-09-23T00:16:24.033Z,28.67
2018-09-23T00:19:05.312Z,30.73
2018-09-23T00:21:33.041Z,28.73
2018-09-23T00:24:00.604Z,28.37
2018-09-23T00:26:28.198Z,35.77
2018-09-23T00:28:55.798Z,34.33
2018-09-23T00:31:23.384Z,29.20
2018-09-23T00:33:51.007Z,30.47
2018-09-23T00:36:18.734Z,35.77
2018-09-23T00:38:46.381Z,33.40
2018-09-23T00:41:13.990Z,32.50
2018-09-23T00:43:41.589Z,32.03
2018-09-23T00:46:09.148Z,38.47
2018-09-23T00:48:48.614Z,39.20
2018-09-23T00:51:16.175Z,41.73
2018-09-23T00:53:43.821Z,40.77
2018-09-23T00:56:11.441Z,38.17
2018-09-23T00:58:39.005Z,48.63
2018-09-23T01:01:06.697Z,48.10
2018-09-23T01:03:36.300Z,49.90
2018-09-23T01:06:03.893Z,48.63
2018-09-23T01:08:31.509Z,40.20
2018-09-23T01:10:59.104Z,46.07
2018-09-23T01:13:26.719Z,43.63
2018-09-23T01:15:54.313Z,49.83
2018-09-23T01:18:21.901Z,49.27
2018-09-23T01:20:49.522Z,48.37
2018-09-23T01:23:17.088Z,46.70
2018-09-23T01:25:44.697Z,48.37
2018-09-23T01:28:12.325Z,40.73
2018-09-23T01:30:39.933Z,50.00
2018-09-23T01:33:07.489Z,40.70
2018-09-23T01:35:35.121Z,44.97
2018-09-23T01:38:02.724Z,44.53
2018-09-23T01:40:30.292Z,49.83
2018-09-23T01:42:57.878Z,45.07
2018-09-23T01:45:25.430Z,47.27
2018-09-23T01:47:53.032Z,42.00
2018-09-23T01:50:20.611Z,43.80
2018-09-23T01:52:48.217Z,44.37
2018-09-23T01:55:15.760Z,34.30
2018-09-23T01:57:43.346Z,39.57
2018-09-23T02:00:10.981Z,41.23
2018-09-23T02:02:38.520Z,34.93
2018-09-23T02:05:06.160Z,35.33
2018-09-23T02:07:33.718Z,38.00
2018-09-23T02:10:01.294Z,35.77
2018-09-23T02:12:28.847Z,29.43
2018-09-23T02:14:56.442Z,33.23
2018-09-23T02:17:28.056Z,32.30
2018-09-23T02:19:56.661Z,36.87
2018-09-23T02:22:24.314Z,34.40
2018-09-23T02:24:51.910Z,31.43
2018-09-23T02:27:19.498Z,26.83
2018-09-23T02:29:47.057Z,26.40
2018-09-23T02:32:14.717Z,29.93
2018-09-23T02:34:42.300Z,28.97
2018-09-23T02:37:09.997Z,36.73
2018-09-23T02:39:37.594Z,30.70
2018-09-23T02:42:05.313Z,29.33
2018-09-23T02:44:32.902Z,29.13
2018-09-23T02:47:00.494Z,29.77
2018-09-23T02:49:34.799Z,26.13
2018-09-23T02:52:02.357Z,29.53
2018-09-23T02:54:29.904Z,27.53
2018-09-23T02:56:57.441Z,30.70
2018-09-23T02:59:25.021Z,28.93
2018-09-23T03:01:52.684Z,28.53
2018-09-23T03:04:20.248Z,32.27
2018-09-23T03:06:47.829Z,26.27
2018-09-23T03:09:15.431Z,26.17
2018-09-23T03:11:42.993Z,26.60
2018-09-23T03:14:10.554Z,30.20
2018-09-23T03:16:38.461Z,24.83
2018-09-23T03:19:06.097Z,23.13
2018-09-23T03:21:33.668Z,24.97
2018-09-23T03:24:01.249Z,27.60
2018-09-23T03:26:29.022Z,23.87
2018-09-23T03:28:56.597Z,22.60
2018-09-23T03:31:24.197Z,26.30
2018-09-23T03:33:51.772Z,24.23
2018-09-23T03:36:19.313Z,31.57
2018-09-23T03:38:46.954Z,32.57
2018-09-23T03:41:14.598Z,32.90
2018-09-23T03:43:42.152Z,26.90
2018-09-23T03:46:09.760Z,35.40
2018-09-23T03:48:37.363Z,34.97
2018-09-23T03:51:05.598Z,34.03
2018-09-23T03:53:33.166Z,32.20
2018-09-23T03:56:00.684Z,37.63
2018-09-23T03:58:28.349Z,39.23
2018-09-23T04:00:55.977Z,34.73
2018-09-23T04:03:24.132Z,30.57
2018-09-23T04:05:52.032Z,36.07
2018-09-23T04:08:20.233Z,39.63
2018-09-23T04:19:27.158Z,36.63
2018-09-23T04:21:54.750Z,34.70
2018-09-23T04:24:22.304Z,41.13
2018-09-23T04:26:49.882Z,39.20
2018-09-23T04:29:17.448Z,40.93
2018-09-23T04:31:45.001Z,40.10
2018-09-23T04:34:12.634Z,35.93
2018-09-23T04:36:40.193Z,34.90
2018-09-23T04:39:09.181Z,34.87
2018-09-23T04:41:37.021Z,34.87
2018-09-23T04:44:04.649Z,31.97
2018-09-23T04:46:32.261Z,38.63
2018-09-23T04:48:59.843Z,37.70
2018-09-23T04:51:27.427Z,41.60
2018-09-23T04:53:54.989Z,48.47
2018-09-23T04:56:22.529Z,47.63
2018-09-23T04:58:50.184Z,45.50
2018-09-23T05:01:17.801Z,50.40
2018-09-23T05:03:45.405Z,44.87
2018-09-23T05:06:12.945Z,47.40
2018-09-23T05:08:40.557Z,47.50
2018-09-23T05:11:08.225Z,56.03
2018-09-23T05:13:35.838Z,48.77
2018-09-23T05:16:03.455Z,53.40
2018-09-23T05:18:31.020Z,51.23
2018-09-23T05:20:58.600Z,53.40
2018-09-23T05:23:26.157Z,52.43
2018-09-23T05:25:53.721Z,51.70
2018-09-23T05:28:21.324Z,57.13
2018-09-23T05:30:48.915Z,66.03
2018-09-23T05:33:16.448Z,65.40
2018-09-23T05:35:44.077Z,75.67
2018-09-23T05:38:11.657Z,64.93
2018-09-23T05:40:39.241Z,68.50
2018-09-23T05:43:06.793Z,68.20
2018-09-23T05:45:34.590Z,68.00
2018-09-23T05:48:02.129Z,74.47
2018-09-23T05:50:29.723Z,68.00
2018-09-23T05:52:57.320Z,76.10
2018-09-23T05:55:24.905Z,55.37
2018-09-23T05:57:52.485Z,58.53
2018-09-23T06:00:20.189Z,64.37
2018-09-23T06:02:47.814Z,60.60
2018-09-23T06:05:15.375Z,57.23
2018-09-23T06:07:42.946Z,68.63
2018-09-23T06:10:10.568Z,62.67
2018-09-23T06:12:38.266Z,53.50
2018-09-23T06:15:05.850Z,66.70
2018-09-23T06:17:33.520Z,67.00
2018-09-23T06:20:01.085Z,66.87
2018-09-23T06:22:28.641Z,60.13
2018-09-23T06:24:56.276Z,55.83
2018-09-23T06:27:23.854Z,55.70
2018-09-23T06:29:51.472Z,55.30
2018-09-23T06:32:19.159Z,52.30
2018-09-23T06:34:46.761Z,40.87
2018-09-23T06:37:14.746Z,49.03
2018-09-23T06:39:42.338Z,44.07
2018-09-23T06:42:10.197Z,41.03
2018-09-23T06:44:37.793Z,39.57
2018-09-23T06:47:05.597Z,44.57
2018-09-23T06:49:33.213Z,42.13
2018-09-23T06:52:00.932Z,45.93
2018-09-23T06:54:28.705Z,48.40
2018-09-23T06:56:56.397Z,47.20
2018-09-23T06:59:24.073Z,42.30
2018-09-23T07:01:51.655Z,36.37
2018-09-23T07:04:19.324Z,44.97
2018-09-23T07:06:46.886Z,38.60
2018-09-23T07:09:15.546Z,42.73
2018-09-23T07:11:43.169Z,39.30
2018-09-23T07:14:10.885Z,38.30
2018-09-23T07:16:38.624Z,39.90
2018-09-23T07:19:06.380Z,36.47
2018-09-23T07:21:33.957Z,36.90
2018-09-23T07:24:02.307Z,36.97
2018-09-23T07:26:29.901Z,32.03
2018-09-23T07:28:57.518Z,34.33
2018-09-23T07:31:26.106Z,33.03
2018-09-23T07:33:53.749Z,31.03
2018-09-23T07:36:21.320Z,27.90
2018-09-23T07:38:48.851Z,30.07
2018-09-23T07:41:16.340Z,32.30
2018-09-23T07:43:43.809Z,27.97
2018-09-23T07:46:11.329Z,26.03
2018-09-23T07:48:38.790Z,27.20
2018-09-23T07:51:06.299Z,29.10
2018-09-23T07:53:33.754Z,22.70
2018-09-23T07:56:01.359Z,24.53
2018-09-23T07:58:28.797Z,22.77
2018-09-23T08:00:56.290Z,19.23
2018-09-23T08:03:23.925Z,20.87
2018-09-23T08:05:51.346Z,23.10
2018-09-23T08:08:18.842Z,21.50
2018-09-23T08:10:46.440Z,18.37
2018-09-23T08:13:14.076Z,23.67
2018-09-23T08:15:41.508Z,20.23
2018-09-23T08:18:09.104Z,18.90
2018-09-23T08:20:36.665Z,15.80
2018-09-23T08:23:04.108Z,19.03
2018-09-23T08:25:31.601Z,19.53
2018-09-23T08:27:59.062Z,20.33
2018-09-23T08:30:26.552Z,21.43
2018-09-23T08:32:54.085Z,16.80
2018-09-23T08:35:21.648Z,14.73
2018-09-23T08:37:49.130Z,17.50
2018-09-23T08:40:16.621Z,18.60
2018-09-23T08:42:44.173Z,18.47
2018-09-23T08:45:11.622Z,15.50
2018-09-23T08:47:39.094Z,18.57
2018-09-23T08:50:06.595Z,19.27
2018-09-23T08:52:34.052Z,24.87
2018-09-23T08:55:01.576Z,28.10
2018-09-23T08:57:29.019Z,22.63
2018-09-23T08:59:56.481Z,23.40
2018-09-23T09:02:24.010Z,22.63
2018-09-23T09:04:51.515Z,25.70
2018-09-23T09:07:18.960Z,19.23
2018-09-23T09:09:46.532Z,20.20
2018-09-23T09:12:13.990Z,18.47
2018-09-23T09:14:41.477Z,20.40
2018-09-23T09:17:08.968Z,20.70
2018-09-23T09:19:36.469Z,25.40
2018-09-23T09:22:03.961Z,22.17
2018-09-23T09:24:31.474Z,21.33
2018-09-23T09:26:58.994Z,22.77
2018-09-23T09:29:26.464Z,26.83
2018-09-23T09:31:53.967Z,30.97
2018-09-23T09:34:21.410Z,22.23
2018-09-23T09:36:48.889Z,22.90
2018-09-23T09:39:16.363Z,28.53
2018-09-23T09:41:43.931Z,25.87
2018-09-23T09:44:11.583Z,24.43
2018-09-23T09:46:39.028Z,25.43
2018-09-23T09:49:06.481Z,27.13
2018-09-23T09:51:34.054Z,25.97
2018-09-23T09:54:01.576Z,30.87
2018-09-23T09:56:29.126Z,33.73
2018-09-23T09:58:56.652Z,43.50
2018-09-23T10:01:24.156Z,40.63
2018-09-23T10:03:51.710Z,53.30
2018-09-23T10:06:20.278Z,53.90
2018-09-23T10:08:47.761Z,55.90
2018-09-23T10:11:15.254Z,60.27
2018-09-23T10:13:42.760Z,58.90
2018-09-23T10:16:10.266Z,63.83
2018-09-23T10:18:37.722Z,69.23
2018-09-23T10:21:05.225Z,65.83
2018-09-23T10:23:32.773Z,79.33
2018-09-23T10:26:00.271Z,87.70
2018-09-23T10:28:27.803Z,74.87
2018-09-23T10:30:55.374Z,92.17
2018-09-23T10:33:22.816Z,77.27
2018-09-23T10:35:50.308Z,85.70
2018-09-23T10:38:29.806Z,72.57
2018-09-23T10:40:57.261Z,57.93
2018-09-23T10:43:24.732Z,48.90
2018-09-23T10:45:52.198Z,42.63
2018-09-23T10:48:19.742Z,35.87
2018-09-23T10:50:47.232Z,40.00
2018-09-23T10:53:14.826Z,27.40
2018-09-23T10:55:42.367Z,40.40
2018-09-23T10:58:09.880Z,24.40
2018-09-23T11:00:37.369Z,26.50
2018-09-23T11:03:04.847Z,25.23
2018-09-23T11:05:32.388Z,27.63
2018-09-23T11:07:59.898Z,35.13
2018-09-23T11:10:33.658Z,57.37
2018-09-23T11:13:01.184Z,33.13
2018-09-23T11:15:28.781Z,34.93
2018-09-23T11:18:04.260Z,30.10
2018-09-23T11:20:31.982Z,25.53
2018-09-23T11:22:59.510Z,28.10
2018-09-23T11:25:27.010Z,22.97
2018-09-23T11:27:56.518Z,24.20
2018-09-23T11:30:30.380Z,21.23
2018-09-23T11:32:57.886Z,30.30
2018-09-23T11:35:25.396Z,21.13
2018-09-23T11:37:53.114Z,18.50
2018-09-23T11:40:20.583Z,26.07
2018-09-23T11:42:48.964Z,18.67
2018-09-23T11:45:16.486Z,17.07
2018-09-23T11:47:44.139Z,17.60
2018-09-23T11:50:18.604Z,18.23
2018-09-23T11:52:50.618Z,22.57
2018-09-23T11:55:18.157Z,20.13
2018-09-23T11:57:51.545Z,22.47
2018-09-23T12:00:19.215Z,17.50
2018-09-23T12:02:46.887Z,21.83
2018-09-23T12:05:14.666Z,23.33
2018-09-23T12:07:42.320Z,35.80
2018-09-23T12:10:09.864Z,31.27
2018-09-23T12:12:37.384Z,26.87
2018-09-23T12:15:04.928Z,22.53
2018-09-23T12:17:32.507Z,22.57
2018-09-23T12:20:00.182Z,22.03
2018-09-23T12:22:30.985Z,29.90
2018-09-23T12:24:58.613Z,25.13
2018-09-23T12:27:26.213Z,23.50
2018-09-23T12:29:53.973Z,27.30
2018-09-23T12:32:21.518Z,30.37
2018-09-23T12:34:49.312Z,35.33
2018-09-23T12:37:16.890Z,40.43
2018-09-23T12:39:44.517Z,50.70
2018-09-23T12:42:12.181Z,33.10
2018-09-23T12:44:39.662Z,30.43
2018-09-23T12:47:07.333Z,32.00
2018-09-23T12:49:35.468Z,34.00
2018-09-23T12:52:02.997Z,34.63
2018-09-23T12:54:31.025Z,38.23
2018-09-23T12:56:58.696Z,36.20
2018-09-23T12:59:29.681Z,38.13
2018-09-23T13:01:57.185Z,44.23
2018-09-23T13:04:24.949Z,30.40
2018-09-23T13:06:52.497Z,39.23
2018-09-23T13:09:19.984Z,52.13
2018-09-23T13:11:47.480Z,38.53
2018-09-23T13:14:15.045Z,32.60
2018-09-23T13:16:43.000Z,33.23
2018-09-23T13:19:11.057Z,35.07
2018-09-23T13:21:39.327Z,35.80
2018-09-23T13:24:07.099Z,29.53
2018-09-23T13:26:34.776Z,33.17
2018-09-23T13:29:02.830Z,34.67
2018-09-23T13:31:30.363Z,31.27
2018-09-23T13:33:58.087Z,30.53
2018-09-23T13:36:25.697Z,38.90
2018-09-23T13:38:53.360Z,26.40
2018-09-23T13:41:21.650Z,25.27
2018-09-23T13:43:49.272Z,23.23
2018-09-23T13:46:16.974Z,30.40
2018-09-23T13:48:45.474Z,25.40
2018-09-23T13:51:13.173Z,19.60
2018-09-23T13:53:41.762Z,19.30
2018-09-23T13:56:09.430Z,26.27
2018-09-23T13:58:37.071Z,20.87
2018-09-23T14:01:04.728Z,20.87
2018-09-23T14:03:32.501Z,26.73
2018-09-23T14:06:01.100Z,21.87
2018-09-23T14:08:28.808Z,29.73
2018-09-23T14:10:57.303Z,28.30
2018-09-23T14:13:25.000Z,24.23
2018-09-23T14:15:52.962Z,31.00
2018-09-23T14:18:20.576Z,27.37
2018-09-23T14:20:48.176Z,27.27
2018-09-23T14:23:15.870Z,28.23
2018-09-23T14:25:43.574Z,35.83
2018-09-23T14:28:12.542Z,29.20
2018-09-23T14:30:40.768Z,28.73
2018-09-23T14:33:08.466Z,24.73
2018-09-23T14:35:36.132Z,27.73
2018-09-23T14:38:04.113Z,22.80
2018-09-23T14:40:32.431Z,18.60
2018-09-23T14:43:00.070Z,29.70
2018-09-23T14:45:40.981Z,20.20
2018-09-23T14:48:09.026Z,25.63
2018-09-23T14:50:36.692Z,23.90
2018-09-23T14:53:04.349Z,22.37
2018-09-23T14:55:32.065Z,19.33
2018-09-23T14:57:59.665Z,26.53
2018-09-23T15:00:28.168Z,21.63
2018-09-23T15:02:55.925Z,24.80
2018-09-23T15:05:23.973Z,28.67
2018-09-23T15:07:51.583Z,27.63
2018-09-23T15:10:19.213Z,24.03
2018-09-23T15:12:46.806Z,24.60
2018-09-23T15:15:14.568Z,29.43
2018-09-23T15:17:42.367Z,21.37
2018-09-23T15:20:10.273Z,21.97
2018-09-23T15:22:37.877Z,17.57
2018-09-23T15:25:05.654Z,22.13
2018-09-23T15:27:33.458Z,20.57
2018-09-23T15:30:01.077Z,21.03
2018-09-23T15:32:28.818Z,23.17
2018-09-23T15:34:56.523Z,20.87
2018-09-23T15:37:24.389Z,17.10
2018-09-23T15:39:52.057Z,17.43
2018-09-23T15:42:19.890Z,15.30
2018-09-23T15:44:47.526Z,16.90
2018-09-23T15:47:16.050Z,14.77
2018-09-23T15:49:43.972Z,17.10
2018-09-23T15:52:11.697Z,12.07
2018-09-23T15:54:39.258Z,11.27
2018-09-23T15:57:07.096Z,9.63
2018-09-23T15:59:36.098Z,11.23
2018-09-23T16:02:04.731Z,10.57
2018-09-23T16:04:32.458Z,10.30
2018-09-23T16:07:00.084Z,9.80
2018-09-23T16:09:27.980Z,11.03
2018-09-23T16:11:55.602Z,10.67
2018-09-23T16:14:24.115Z,9.70
2018-09-23T16:16:51.798Z,13.60
2018-09-23T16:19:23.116Z,11.97
2018-09-23T16:21:51.136Z,10.60
2018-09-23T16:24:18.791Z,14.30
2018-09-23T16:26:46.370Z,15.60
2018-09-23T16:29:14.118Z,17.67
2018-09-23T16:31:41.757Z,16.07
2018-09-23T16:34:09.402Z,15.50
2018-09-23T16:36:37.229Z,17.10
2018-09-23T16:39:19.281Z,11.63
2018-09-23T16:41:52.473Z,9.40
2018-09-23T16:44:20.133Z,8.63
2018-09-23T16:46:47.820Z,8.63
2018-09-23T16:49:15.699Z,10.17
2018-09-23T16:51:43.477Z,6.50
2018-09-23T16:54:11.168Z,6.83
2018-09-23T16:56:38.834Z,10.80
2018-09-23T16:59:06.713Z,10.20
2018-09-23T17:01:34.644Z,10.60
2018-09-23T17:04:02.290Z,22.83
2018-09-23T17:06:29.921Z,20.43
2018-09-23T17:08:57.581Z,33.70
2018-09-23T17:11:25.256Z,40.73
2018-09-23T17:13:52.951Z,43.57
2018-09-23T17:16:20.672Z,33.80
2018-09-23T17:18:48.319Z,24.70
2018-09-23T17:21:15.962Z,16.63
2018-09-23T17:23:43.680Z,8.33
2018-09-23T17:26:20.451Z,10.60
2018-09-23T17:28:48.126Z,13.63
2018-09-23T17:31:15.699Z,11.60
2018-09-23T17:33:43.309Z,9.53
2018-09-23T17:36:10.961Z,12.33
2018-09-23T17:38:38.829Z,9.33
2018-09-23T17:41:06.892Z,9.90
2018-09-23T17:43:34.677Z,14.40
2018-09-23T17:46:02.333Z,10.93
2018-09-23T17:48:30.056Z,10.30
2018-09-23T17:50:57.677Z,8.30
2018-09-23T17:53:25.794Z,7.43
2018-09-23T17:55:53.391Z,10.03
2018-09-23T17:58:21.329Z,11.67
2018-09-23T18:00:49.053Z,10.13
2018-09-23T18:03:20.615Z,16.33
2018-09-23T18:05:48.284Z,17.03
2018-09-23T18:08:16.041Z,14.70
2018-09-23T18:10:43.786Z,11.80
2018-09-23T18:13:11.597Z,11.63
2018-09-23T18:15:39.393Z,10.37
2018-09-23T18:18:07.227Z,12.97
2018-09-23T18:20:34.984Z,13.23
2018-09-23T18:23:02.598Z,16.50
2018-09-23T18:25:30.525Z,18.17
2018-09-23T18:27:58.454Z,13.40
2018-09-23T18:30:26.137Z,13.87
2018-09-23T18:32:53.944Z,13.13
2018-09-23T18:35:21.843Z,15.17
2018-09-23T18:37:49.482Z,10.77
2018-09-23T18:40:17.360Z,13.47
2018-09-23T18:42:45.171Z,14.87
2018-09-23T18:45:13.066Z,25.97
2018-09-23T18:47:40.816Z,11.50
2018-09-23T18:50:08.686Z,8.27
2018-09-23T18:52:36.355Z,12.67
2018-09-23T18:55:09.906Z,6.83
2018-09-23T18:57:37.550Z,14.43
2018-09-23T19:00:05.760Z,14.00
2018-09-23T19:02:33.538Z,10.93
2018-09-23T19:05:01.382Z,25.97
2018-09-23T19:07:29.000Z,18.43
2018-09-23T19:09:56.823Z,24.57
2018-09-23T19:12:24.630Z,18.43
2018-09-23T19:14:52.750Z,12.83
2018-09-23T19:17:20.641Z,11.30
2018-09-23T19:19:54.235Z,17.20
2018-09-23T19:22:27.609Z,6.20
2018-09-23T19:24:55.266Z,24.10
2018-09-23T19:27:23.260Z,13.40
2018-09-23T19:29:51.114Z,10.23
2018-09-23T19:32:22.691Z,9.67
2018-09-23T19:34:51.097Z,9.23
2018-09-23T19:37:18.798Z,10.30
2018-09-23T19:39:46.538Z,11.17
2018-09-23T19:42:14.254Z,10.07
2018-09-23T19:44:44.386Z,7.73
2018-09-23T19:47:14.040Z,11.47
2018-09-23T19:49:41.653Z,13.80
2018-09-23T19:52:09.323Z,7.90
2018-09-23T19:54:36.994Z,6.10
2018-09-23T19:57:04.748Z,10.00
2018-09-23T19:59:32.339Z,11.20
2018-09-23T20:02:11.065Z,9.43
2018-09-23T20:07:41.640Z,11.23
2018-09-23T20:10:10.821Z,12.43
2018-09-23T20:12:39.428Z,12.23
2018-09-23T20:15:44.970Z,10.63
2018-09-23T20:18:41.662Z,12.10
2018-09-23T20:21:09.358Z,12.80
2018-09-23T20:23:37.337Z,16.67
2018-09-23T20:26:05.386Z,14.73
2018-09-23T20:28:33.099Z,12.93
2018-09-23T20:31:00.696Z,16.57
2018-09-23T20:33:28.291Z,16.10
2018-09-23T20:35:55.919Z,28.40
2018-09-23T20:38:23.601Z,17.60
2018-09-23T20:40:51.178Z,11.90
2018-09-23T20:43:18.808Z,13.57
2018-09-23T20:45:46.474Z,14.23
2018-09-23T20:48:14.073Z,16.13
2018-09-23T20:50:41.639Z,17.23
2018-09-23T20:53:09.279Z,19.73
2018-09-23T20:55:36.891Z,19.40
2018-09-23T20:58:05.135Z,21.27
2018-09-23T21:00:33.014Z,17.90
2018-09-23T21:03:00.618Z,23.63
2018-09-23T21:05:28.425Z,17.90
2018-09-23T21:07:56.046Z,22.03
2018-09-23T21:10:23.820Z,22.70
2018-09-23T21:12:51.385Z,25.93
2018-09-23T21:15:19.012Z,24.37
2018-09-23T21:17:46.694Z,25.10
2018-09-23T21:20:14.327Z,31.63
2018-09-23T21:22:41.937Z,25.07
2018-09-23T21:25:10.369Z,26.87
2018-09-23T21:27:38.015Z,30.60
2018-09-23T21:30:05.662Z,27.50
2018-09-23T21:32:33.482Z,21.87
2018-09-23T21:35:01.151Z,29.10
2018-09-23T21:37:28.786Z,20.43
2018-09-23T21:39:56.407Z,22.77
2018-09-23T21:42:24.144Z,27.43
2018-09-23T21:44:51.738Z,29.17
2018-09-23T21:47:19.309Z,29.60
2018-09-23T21:49:46.896Z,37.00
2018-09-23T21:52:16.734Z,37.37
2018-09-23T21:54:44.352Z,36.33
2018-09-23T21:57:11.950Z,40.87
2018-09-23T21:59:40.025Z,34.33
2018-09-23T22:02:07.669Z,45.83
2018-09-23T22:04:35.293Z,46.13
2018-09-23T22:07:02.910Z,39.80
2018-09-23T22:09:37.283Z,42.57
2018-09-23T22:12:05.069Z,43.13
2018-09-23T22:14:32.710Z,40.10
2018-09-23T22:17:00.268Z,39.37
2018-09-23T22:19:27.894Z,47.13
2018-09-23T22:21:55.482Z,46.57
2018-09-23T22:24:23.056Z,51.13
2018-09-23T22:26:50.710Z,44.93
2018-09-23T22:29:18.403Z,46.40
2018-09-23T22:31:46.164Z,42.67
2018-09-23T22:34:13.801Z,46.67
2018-09-23T22:36:41.453Z,45.87
2018-09-23T22:39:09.081Z,46.97
2018-09-23T22:41:36.673Z,43.60
2018-09-23T22:44:04.274Z,48.57
2018-09-23T22:46:40.266Z,56.87
2018-09-23T22:49:07.874Z,50.23
2018-09-23T22:51:35.481Z,48.73
2018-09-23T22:54:03.065Z,48.00
2018-09-23T22:56:30.728Z,41.40
2018-09-23T22:59:10.881Z,43.53
2018-09-23T23:01:38.695Z,46.50
2018-09-23T23:04:06.281Z,42.60
2018-09-23T23:06:33.869Z,41.60
2018-09-23T23:09:01.450Z,40.20
2018-09-23T23:11:29.034Z,39.60
2018-09-23T23:13:56.570Z,34.80
2018-09-23T23:16:24.146Z,34.83
2018-09-23T23:18:51.967Z,34.27
2018-09-23T23:21:21.638Z,36.30
2018-09-23T23:23:49.210Z,31.47
2018-09-23T23:26:16.759Z,37.53
2018-09-23T23:28:44.378Z,30.43
2018-09-23T23:31:11.984Z,33.53
2018-09-23T23:33:39.569Z,31.83
2018-09-23T23:36:07.145Z,26.40
2018-09-23T23:38:34.704Z,35.07
2018-09-23T23:41:02.302Z,23.23
2018-09-23T23:43:29.876Z,30.87
2018-09-23T23:45:57.518Z,22.40
2018-09-23T23:48:25.050Z,23.30
2018-09-23T23:50:52.626Z,21.73
2018-09-23T23:53:20.211Z,18.73
2018-09-23T23:55:47.778Z,21.67
2018-09-23T23:58:15.413Z,17.77
